sensor_id;sensor_type;location;lat;lon;timestamp;temperature;humidity
4635;DHT22;2330;48.158;11.816;2022-11-20T00:01:28;5.40;98.50
4635;DHT22;2330;48.158;11.816;2022-11-20T00:03:56;5.40;98.50
4635;DHT22;2330;48.158;11.816;2022-11-20T00:06:25;5.40;98.50
4635;DHT22;2330;48.158;11.816;2022-11-20T00:08:54;5.40;98.50
4635;DHT22;2330;48.158;11.816;2022-11-20T00:11:23;5.40;98.50
4635;DHT22;2330;48.158;11.816;2022-11-20T00:13:52;5.40;98.50
4635;DHT22;2330;48.158;11.816;2022-11-20T00:16:23;5.40;98.50
4635;DHT22;2330;48.158;11.816;2022-11-20T00:18:51;5.40;98.50
4635;DHT22;2330;48.158;11.816;2022-11-20T00:21:23;5.40;98.50
4635;DHT22;2330;48.158;11.816;2022-11-20T00:23:52;5.40;98.50
4635;DHT22;2330;48.158;11.816;2022-11-20T00:26:22;5.40;98.50
4635;DHT22;2330;48.158;11.816;2022-11-20T00:28:54;5.40;98.50
4635;DHT22;2330;48.158;11.816;2022-11-20T00:31:21;5.40;98.50
4635;DHT22;2330;48.158;11.816;2022-11-20T00:33:48;5.50;98.50
4635;DHT22;2330;48.158;11.816;2022-11-20T00:36:21;5.50;98.50
4635;DHT22;2330;48.158;11.816;2022-11-20T00:38:51;5.50;98.50
4635;DHT22;2330;48.158;11.816;2022-11-20T00:41:18;5.50;98.50
4635;DHT22;2330;48.158;11.816;2022-11-20T00:43:45;5.50;98.50
4635;DHT22;2330;48.158;11.816;2022-11-20T00:46:18;5.50;98.50
4635;DHT22;2330;48.158;11.816;2022-11-20T00:48:45;5.50;98.50
4635;DHT22;2330;48.158;11.816;2022-11-20T00:51:16;5.50;98.50
4635;DHT22;2330;48.158;11.816;2022-11-20T00:53:43;5.50;98.50
4635;DHT22;2330;48.158;11.816;2022-11-20T00:56:12;5.50;98.50
4635;DHT22;2330;48.158;11.816;2022-11-20T00:58:41;5.50;98.50
4635;DHT22;2330;48.158;11.816;2022-11-20T01:01:14;5.50;98.50
4635;DHT22;2330;48.158;11.816;2022-11-20T01:03:43;5.50;98.50
4635;DHT22;2330;48.158;11.816;2022-11-20T01:06:32;5.60;98.50
4635;DHT22;2330;48.158;11.816;2022-11-20T01:09:02;5.60;98.50
4635;DHT22;2330;48.158;11.816;2022-11-20T01:11:31;5.50;98.50
4635;DHT22;2330;48.158;11.816;2022-11-20T01:14:01;5.50;98.50
4635;DHT22;2330;48.158;11.816;2022-11-20T01:16:36;5.50;98.50
4635;DHT22;2330;48.158;11.816;2022-11-20T01:19:05;5.40;98.50
4635;DHT22;2330;48.158;11.816;2022-11-20T01:21:35;5.40;98.50
4635;DHT22;2330;48.158;11.816;2022-11-20T01:24:04;5.30;98.50
4635;DHT22;2330;48.158;11.816;2022-11-20T01:26:35;5.30;98.50
4635;DHT22;2330;48.158;11.816;2022-11-20T01:29:03;5.20;98.50
4635;DHT22;2330;48.158;11.816;2022-11-20T01:31:32;5.20;98.50
4635;DHT22;2330;48.158;11.816;2022-11-20T01:34:05;5.10;98.50
4635;DHT22;2330;48.158;11.816;2022-11-20T01:36:33;5.10;98.50
4635;DHT22;2330;48.158;11.816;2022-11-20T01:39:05;5.10;98.50
4635;DHT22;2330;48.158;11.816;2022-11-20T01:41:33;5.00;98.50
4635;DHT22;2330;48.158;11.816;2022-11-20T01:44:22;5.00;98.50
4635;DHT22;2330;48.158;11.816;2022-11-20T01:47:08;5.00;98.50
4635;DHT22;2330;48.158;11.816;2022-11-20T01:49:45;5.00;98.50
4635;DHT22;2330;48.158;11.816;2022-11-20T01:52:17;5.00;98.50
4635;DHT22;2330;48.158;11.816;2022-11-20T01:54:59;5.00;98.50
4635;DHT22;2330;48.158;11.816;2022-11-20T01:57:29;5.00;98.50
4635;DHT22;2330;48.158;11.816;2022-11-20T02:00:05;5.00;98.50
4635;DHT22;2330;48.158;11.816;2022-11-20T02:02:32;5.00;98.50
4635;DHT22;2330;48.158;11.816;2022-11-20T02:05:04;5.00;98.50
4635;DHT22;2330;48.158;11.816;2022-11-20T02:07:36;5.00;98.50
4635;DHT22;2330;48.158;11.816;2022-11-20T02:10:04;5.00;98.50
4635;DHT22;2330;48.158;11.816;2022-11-20T02:12:31;5.00;98.50
4635;DHT22;2330;48.158;11.816;2022-11-20T02:15:16;5.00;98.50
4635;DHT22;2330;48.158;11.816;2022-11-20T02:17:43;5.00;98.50
4635;DHT22;2330;48.158;11.816;2022-11-20T02:20:10;5.00;98.50
4635;DHT22;2330;48.158;11.816;2022-11-20T02:22:48;5.00;98.50
4635;DHT22;2330;48.158;11.816;2022-11-20T02:25:18;5.00;98.50
4635;DHT22;2330;48.158;11.816;2022-11-20T02:27:45;5.00;98.50
4635;DHT22;2330;48.158;11.816;2022-11-20T02:30:13;5.00;98.50
4635;DHT22;2330;48.158;11.816;2022-11-20T02:32:39;5.00;98.50
4635;DHT22;2330;48.158;11.816;2022-11-20T02:37:54;5.10;98.50
4635;DHT22;2330;48.158;11.816;2022-11-20T02:40:22;5.10;98.50
4635;DHT22;2330;48.158;11.816;2022-11-20T02:42:56;5.10;98.50
4635;DHT22;2330;48.158;11.816;2022-11-20T02:45:23;5.10;98.50
4635;DHT22;2330;48.158;11.816;2022-11-20T02:47:51;5.10;98.50
4635;DHT22;2330;48.158;11.816;2022-11-20T02:50:18;5.10;98.50
4635;DHT22;2330;48.158;11.816;2022-11-20T02:52:45;5.10;98.50
4635;DHT22;2330;48.158;11.816;2022-11-20T02:55:12;5.10;98.50
4635;DHT22;2330;48.158;11.816;2022-11-20T02:57:39;5.10;98.50
4635;DHT22;2330;48.158;11.816;2022-11-20T03:00:06;5.10;98.50
4635;DHT22;2330;48.158;11.816;2022-11-20T03:02:33;5.10;98.50
4635;DHT22;2330;48.158;11.816;2022-11-20T03:05:00;5.10;98.50
4635;DHT22;2330;48.158;11.816;2022-11-20T03:07:27;5.10;98.50
4635;DHT22;2330;48.158;11.816;2022-11-20T03:09:54;5.10;98.50
4635;DHT22;2330;48.158;11.816;2022-11-20T03:12:20;5.10;98.50
4635;DHT22;2330;48.158;11.816;2022-11-20T03:14:47;5.10;98.50
4635;DHT22;2330;48.158;11.816;2022-11-20T03:17:19;5.10;98.50
4635;DHT22;2330;48.158;11.816;2022-11-20T03:19:45;5.10;98.50
4635;DHT22;2330;48.158;11.816;2022-11-20T03:22:12;5.10;98.50
4635;DHT22;2330;48.158;11.816;2022-11-20T03:24:39;5.10;98.50
4635;DHT22;2330;48.158;11.816;2022-11-20T03:27:05;5.10;98.50
4635;DHT22;2330;48.158;11.816;2022-11-20T03:29:32;5.20;98.50
4635;DHT22;2330;48.158;11.816;2022-11-20T03:31:59;5.10;98.50
4635;DHT22;2330;48.158;11.816;2022-11-20T03:34:25;5.10;98.50
4635;DHT22;2330;48.158;11.816;2022-11-20T03:36:52;5.10;98.50
4635;DHT22;2330;48.158;11.816;2022-11-20T03:39:19;5.10;98.50
4635;DHT22;2330;48.158;11.816;2022-11-20T03:41:46;5.10;98.50
4635;DHT22;2330;48.158;11.816;2022-11-20T03:44:13;5.10;98.50
4635;DHT22;2330;48.158;11.816;2022-11-20T03:46:39;5.10;98.50
4635;DHT22;2330;48.158;11.816;2022-11-20T03:49:06;5.10;98.50
4635;DHT22;2330;48.158;11.816;2022-11-20T03:51:35;5.10;98.50
4635;DHT22;2330;48.158;11.816;2022-11-20T03:54:07;5.10;98.50
4635;DHT22;2330;48.158;11.816;2022-11-20T03:56:37;5.10;98.50
4635;DHT22;2330;48.158;11.816;2022-11-20T03:59:05;5.10;98.50
4635;DHT22;2330;48.158;11.816;2022-11-20T04:01:36;5.10;98.50
4635;DHT22;2330;48.158;11.816;2022-11-20T04:04:04;5.10;98.50
4635;DHT22;2330;48.158;11.816;2022-11-20T04:06:36;5.10;98.50
4635;DHT22;2330;48.158;11.816;2022-11-20T04:09:04;5.10;98.50
4635;DHT22;2330;48.158;11.816;2022-11-20T04:11:33;5.10;98.50
4635;DHT22;2330;48.158;11.816;2022-11-20T04:14:02;5.10;98.50
4635;DHT22;2330;48.158;11.816;2022-11-20T04:16:34;5.10;98.50
4635;DHT22;2330;48.158;11.816;2022-11-20T04:19:03;5.10;98.50
4635;DHT22;2330;48.158;11.816;2022-11-20T04:21:31;5.00;98.50
4635;DHT22;2330;48.158;11.816;2022-11-20T04:24:00;5.00;98.50
4635;DHT22;2330;48.158;11.816;2022-11-20T04:26:28;5.00;98.50
4635;DHT22;2330;48.158;11.816;2022-11-20T04:28:56;5.00;98.50
4635;DHT22;2330;48.158;11.816;2022-11-20T04:31:26;5.00;98.50
4635;DHT22;2330;48.158;11.816;2022-11-20T04:33:53;5.00;98.50
4635;DHT22;2330;48.158;11.816;2022-11-20T04:36:24;5.00;98.50
4635;DHT22;2330;48.158;11.816;2022-11-20T04:38:52;5.10;98.50
4635;DHT22;2330;48.158;11.816;2022-11-20T04:41:25;5.10;98.50
4635;DHT22;2330;48.158;11.816;2022-11-20T04:43:55;5.10;98.50
4635;DHT22;2330;48.158;11.816;2022-11-20T04:46:26;5.10;98.50
4635;DHT22;2330;48.158;11.816;2022-11-20T04:48:54;5.10;98.50
4635;DHT22;2330;48.158;11.816;2022-11-20T04:51:21;5.10;98.50
4635;DHT22;2330;48.158;11.816;2022-11-20T04:53:47;5.10;98.50
4635;DHT22;2330;48.158;11.816;2022-11-20T04:56:15;5.10;98.50
4635;DHT22;2330;48.158;11.816;2022-11-20T04:58:41;5.10;98.50
4635;DHT22;2330;48.158;11.816;2022-11-20T05:01:22;5.00;98.50
4635;DHT22;2330;48.158;11.816;2022-11-20T05:03:50;5.00;98.50
4635;DHT22;2330;48.158;11.816;2022-11-20T05:06:20;5.00;98.50
4635;DHT22;2330;48.158;11.816;2022-11-20T05:08:47;5.00;98.50
4635;DHT22;2330;48.158;11.816;2022-11-20T05:11:16;5.00;98.50
4635;DHT22;2330;48.158;11.816;2022-11-20T05:13:43;5.00;98.50
4635;DHT22;2330;48.158;11.816;2022-11-20T05:16:19;5.00;98.50
4635;DHT22;2330;48.158;11.816;2022-11-20T05:18:46;5.00;98.50
4635;DHT22;2330;48.158;11.816;2022-11-20T05:21:13;5.00;98.50
4635;DHT22;2330;48.158;11.816;2022-11-20T05:23:41;4.90;98.50
4635;DHT22;2330;48.158;11.816;2022-11-20T05:26:15;4.90;98.50
4635;DHT22;2330;48.158;11.816;2022-11-20T05:28:43;4.90;98.50
4635;DHT22;2330;48.158;11.816;2022-11-20T05:31:12;4.90;98.50
4635;DHT22;2330;48.158;11.816;2022-11-20T05:33:40;4.90;98.50
4635;DHT22;2330;48.158;11.816;2022-11-20T05:36:08;4.90;98.50
4635;DHT22;2330;48.158;11.816;2022-11-20T05:38:35;4.90;98.50
4635;DHT22;2330;48.158;11.816;2022-11-20T05:41:05;4.90;98.50
4635;DHT22;2330;48.158;11.816;2022-11-20T05:43:37;4.90;98.50
4635;DHT22;2330;48.158;11.816;2022-11-20T05:46:05;4.90;98.50
4635;DHT22;2330;48.158;11.816;2022-11-20T05:48:32;4.90;98.50
4635;DHT22;2330;48.158;11.816;2022-11-20T05:51:01;4.90;98.50
4635;DHT22;2330;48.158;11.816;2022-11-20T05:53:29;4.90;98.50
4635;DHT22;2330;48.158;11.816;2022-11-20T05:55:59;4.90;98.50
4635;DHT22;2330;48.158;11.816;2022-11-20T05:58:27;4.90;98.50
4635;DHT22;2330;48.158;11.816;2022-11-20T06:00:54;4.90;98.50
4635;DHT22;2330;48.158;11.816;2022-11-20T06:03:21;4.90;98.50
4635;DHT22;2330;48.158;11.816;2022-11-20T06:05:48;4.90;98.50
4635;DHT22;2330;48.158;11.816;2022-11-20T06:08:14;4.90;98.50
4635;DHT22;2330;48.158;11.816;2022-11-20T06:10:41;4.90;98.50
4635;DHT22;2330;48.158;11.816;2022-11-20T06:13:08;4.90;98.50
4635;DHT22;2330;48.158;11.816;2022-11-20T06:15:35;4.90;98.50
4635;DHT22;2330;48.158;11.816;2022-11-20T06:18:01;4.90;98.50
4635;DHT22;2330;48.158;11.816;2022-11-20T06:20:28;4.90;98.50
4635;DHT22;2330;48.158;11.816;2022-11-20T06:22:55;5.00;98.50
4635;DHT22;2330;48.158;11.816;2022-11-20T06:25:21;5.00;98.50
4635;DHT22;2330;48.158;11.816;2022-11-20T06:27:48;5.00;98.50
4635;DHT22;2330;48.158;11.816;2022-11-20T06:30:15;4.90;98.50
4635;DHT22;2330;48.158;11.816;2022-11-20T06:32:42;4.90;98.50
4635;DHT22;2330;48.158;11.816;2022-11-20T06:35:09;4.90;98.50
4635;DHT22;2330;48.158;11.816;2022-11-20T06:37:36;4.90;98.50
4635;DHT22;2330;48.158;11.816;2022-11-20T06:40:03;4.80;98.50
4635;DHT22;2330;48.158;11.816;2022-11-20T06:42:29;4.80;98.50
4635;DHT22;2330;48.158;11.816;2022-11-20T06:44:56;4.70;98.50
4635;DHT22;2330;48.158;11.816;2022-11-20T06:47:23;4.70;98.50
4635;DHT22;2330;48.158;11.816;2022-11-20T06:49:50;4.60;98.50
4635;DHT22;2330;48.158;11.816;2022-11-20T06:52:17;4.60;98.50
4635;DHT22;2330;48.158;11.816;2022-11-20T06:54:43;4.60;98.50
4635;DHT22;2330;48.158;11.816;2022-11-20T06:57:10;4.60;98.50
4635;DHT22;2330;48.158;11.816;2022-11-20T06:59:37;4.60;98.50
4635;DHT22;2330;48.158;11.816;2022-11-20T07:02:04;4.60;98.50
4635;DHT22;2330;48.158;11.816;2022-11-20T07:04:30;4.60;98.50
4635;DHT22;2330;48.158;11.816;2022-11-20T07:06:57;4.60;98.50
4635;DHT22;2330;48.158;11.816;2022-11-20T07:09:24;4.70;98.50
4635;DHT22;2330;48.158;11.816;2022-11-20T07:11:51;4.70;98.50
4635;DHT22;2330;48.158;11.816;2022-11-20T07:14:18;4.80;98.50
4635;DHT22;2330;48.158;11.816;2022-11-20T07:16:44;4.80;98.50
4635;DHT22;2330;48.158;11.816;2022-11-20T07:19:11;4.90;98.50
4635;DHT22;2330;48.158;11.816;2022-11-20T07:21:38;4.90;98.50
4635;DHT22;2330;48.158;11.816;2022-11-20T07:24:05;5.00;98.50
4635;DHT22;2330;48.158;11.816;2022-11-20T07:26:31;5.00;98.50
4635;DHT22;2330;48.158;11.816;2022-11-20T07:28:58;5.10;98.50
4635;DHT22;2330;48.158;11.816;2022-11-20T07:31:25;5.20;98.50
4635;DHT22;2330;48.158;11.816;2022-11-20T07:33:52;5.20;98.50
4635;DHT22;2330;48.158;11.816;2022-11-20T07:36:20;5.20;98.50
4635;DHT22;2330;48.158;11.816;2022-11-20T07:38:46;5.20;98.50
4635;DHT22;2330;48.158;11.816;2022-11-20T07:41:13;5.20;98.50
4635;DHT22;2330;48.158;11.816;2022-11-20T07:43:40;5.20;98.50
4635;DHT22;2330;48.158;11.816;2022-11-20T07:46:07;5.30;98.50
4635;DHT22;2330;48.158;11.816;2022-11-20T07:48:34;5.30;98.50
4635;DHT22;2330;48.158;11.816;2022-11-20T07:51:01;5.30;98.50
4635;DHT22;2330;48.158;11.816;2022-11-20T07:53:28;5.30;98.50
4635;DHT22;2330;48.158;11.816;2022-11-20T07:55:54;5.30;98.50
4635;DHT22;2330;48.158;11.816;2022-11-20T07:58:21;5.40;98.50
4635;DHT22;2330;48.158;11.816;2022-11-20T08:00:48;5.40;98.50
4635;DHT22;2330;48.158;11.816;2022-11-20T08:03:15;5.40;98.50
4635;DHT22;2330;48.158;11.816;2022-11-20T08:05:50;5.40;98.50
4635;DHT22;2330;48.158;11.816;2022-11-20T08:08:17;5.40;98.50
4635;DHT22;2330;48.158;11.816;2022-11-20T08:10:43;5.40;98.50
4635;DHT22;2330;48.158;11.816;2022-11-20T08:13:10;5.40;98.50
4635;DHT22;2330;48.158;11.816;2022-11-20T08:15:55;5.50;98.50
4635;DHT22;2330;48.158;11.816;2022-11-20T08:18:22;5.50;98.50
4635;DHT22;2330;48.158;11.816;2022-11-20T08:21:02;5.50;98.50
4635;DHT22;2330;48.158;11.816;2022-11-20T08:23:28;5.60;98.50
4635;DHT22;2330;48.158;11.816;2022-11-20T08:25:55;5.60;98.50
4635;DHT22;2330;48.158;11.816;2022-11-20T08:28:22;5.60;98.50
4635;DHT22;2330;48.158;11.816;2022-11-20T08:30:49;5.60;98.50
4635;DHT22;2330;48.158;11.816;2022-11-20T08:33:17;5.60;98.50
4635;DHT22;2330;48.158;11.816;2022-11-20T08:35:44;5.60;98.50
4635;DHT22;2330;48.158;11.816;2022-11-20T08:38:11;5.60;98.50
4635;DHT22;2330;48.158;11.816;2022-11-20T08:40:38;5.60;98.50
4635;DHT22;2330;48.158;11.816;2022-11-20T08:43:04;5.60;98.50
4635;DHT22;2330;48.158;11.816;2022-11-20T08:45:31;5.70;98.50
4635;DHT22;2330;48.158;11.816;2022-11-20T08:48:04;5.70;98.50
4635;DHT22;2330;48.158;11.816;2022-11-20T08:50:31;5.70;98.50
4635;DHT22;2330;48.158;11.816;2022-11-20T08:53:06;5.70;98.50
4635;DHT22;2330;48.158;11.816;2022-11-20T08:55:33;5.80;98.50
4635;DHT22;2330;48.158;11.816;2022-11-20T08:58:06;5.80;98.50
4635;DHT22;2330;48.158;11.816;2022-11-20T09:00:33;5.80;98.50
4635;DHT22;2330;48.158;11.816;2022-11-20T09:03:01;5.80;98.50
4635;DHT22;2330;48.158;11.816;2022-11-20T09:05:28;5.80;98.50
4635;DHT22;2330;48.158;11.816;2022-11-20T09:07:58;5.90;98.50
4635;DHT22;2330;48.158;11.816;2022-11-20T09:10:28;5.90;98.50
4635;DHT22;2330;48.158;11.816;2022-11-20T09:12:55;6.00;98.50
4635;DHT22;2330;48.158;11.816;2022-11-20T09:15:23;6.00;98.50
4635;DHT22;2330;48.158;11.816;2022-11-20T09:17:58;6.00;98.50
4635;DHT22;2330;48.158;11.816;2022-11-20T09:20:27;6.00;98.50
4635;DHT22;2330;48.158;11.816;2022-11-20T09:22:55;6.00;98.50
4635;DHT22;2330;48.158;11.816;2022-11-20T09:25:22;6.00;98.50
4635;DHT22;2330;48.158;11.816;2022-11-20T09:27:56;6.00;98.50
4635;DHT22;2330;48.158;11.816;2022-11-20T09:30:23;6.10;98.50
4635;DHT22;2330;48.158;11.816;2022-11-20T09:32:50;6.10;98.50
4635;DHT22;2330;48.158;11.816;2022-11-20T09:35:17;6.10;98.50
4635;DHT22;2330;48.158;11.816;2022-11-20T09:37:44;6.10;98.50
4635;DHT22;2330;48.158;11.816;2022-11-20T09:40:25;6.20;98.50
4635;DHT22;2330;48.158;11.816;2022-11-20T09:43:17;6.20;98.50
4635;DHT22;2330;48.158;11.816;2022-11-20T09:46:17;6.20;98.50
4635;DHT22;2330;48.158;11.816;2022-11-20T09:48:53;6.30;98.50
4635;DHT22;2330;48.158;11.816;2022-11-20T09:51:36;6.40;98.50
4635;DHT22;2330;48.158;11.816;2022-11-20T09:54:27;6.40;98.50
4635;DHT22;2330;48.158;11.816;2022-11-20T09:57:01;6.50;98.50
4635;DHT22;2330;48.158;11.816;2022-11-20T10:02:02;6.60;98.50
4635;DHT22;2330;48.158;11.816;2022-11-20T10:04:33;6.60;98.50
4635;DHT22;2330;48.158;11.816;2022-11-20T10:07:22;6.70;98.50
4635;DHT22;2330;48.158;11.816;2022-11-20T10:09:58;6.70;98.50
4635;DHT22;2330;48.158;11.816;2022-11-20T10:12:46;6.80;98.50
4635;DHT22;2330;48.158;11.816;2022-11-20T10:20:40;6.90;98.50
4635;DHT22;2330;48.158;11.816;2022-11-20T10:31:42;7.30;98.50
4635;DHT22;2330;48.158;11.816;2022-11-20T10:37:19;7.50;98.50
4635;DHT22;2330;48.158;11.816;2022-11-20T10:42:31;7.40;98.50
4635;DHT22;2330;48.158;11.816;2022-11-20T10:47:53;7.40;98.50
4635;DHT22;2330;48.158;11.816;2022-11-20T10:50:22;7.60;98.50
4635;DHT22;2330;48.158;11.816;2022-11-20T10:53:05;7.60;98.50
4635;DHT22;2330;48.158;11.816;2022-11-20T10:56:03;7.70;98.50
4635;DHT22;2330;48.158;11.816;2022-11-20T11:01:40;8.20;98.50
4635;DHT22;2330;48.158;11.816;2022-11-20T11:04:26;8.40;98.50
4635;DHT22;2330;48.158;11.816;2022-11-20T11:07:10;8.60;98.50
4635;DHT22;2330;48.158;11.816;2022-11-20T11:09:43;8.70;97.90
4635;DHT22;2330;48.158;11.816;2022-11-20T11:12:10;8.60;97.40
4635;DHT22;2330;48.158;11.816;2022-11-20T11:14:45;8.40;98.30
4635;DHT22;2330;48.158;11.816;2022-11-20T11:20:06;8.10;98.50
4635;DHT22;2330;48.158;11.816;2022-11-20T11:22:34;8.00;98.50
4635;DHT22;2330;48.158;11.816;2022-11-20T11:25:19;7.90;98.50
4635;DHT22;2330;48.158;11.816;2022-11-20T11:27:47;7.90;98.50
4635;DHT22;2330;48.158;11.816;2022-11-20T11:30:16;7.60;98.50
4635;DHT22;2330;48.158;11.816;2022-11-20T11:32:44;7.60;98.50
4635;DHT22;2330;48.158;11.816;2022-11-20T11:35:28;7.70;98.50
4635;DHT22;2330;48.158;11.816;2022-11-20T11:38:05;7.90;98.50
4635;DHT22;2330;48.158;11.816;2022-11-20T11:40:35;8.00;98.50
4635;DHT22;2330;48.158;11.816;2022-11-20T11:43:06;8.10;98.50
4635;DHT22;2330;48.158;11.816;2022-11-20T11:45:54;8.10;98.50
4635;DHT22;2330;48.158;11.816;2022-11-20T11:48:21;8.10;98.50
4635;DHT22;2330;48.158;11.816;2022-11-20T11:50:49;8.30;98.50
4635;DHT22;2330;48.158;11.816;2022-11-20T11:53:20;8.20;98.50
4635;DHT22;2330;48.158;11.816;2022-11-20T11:56:05;8.30;98.50
4635;DHT22;2330;48.158;11.816;2022-11-20T11:58:44;8.40;98.50
4635;DHT22;2330;48.158;11.816;2022-11-20T12:07:03;8.40;98.50
4635;DHT22;2330;48.158;11.816;2022-11-20T12:09:54;8.30;98.50
4635;DHT22;2330;48.158;11.816;2022-11-20T12:12:29;8.30;98.50
4635;DHT22;2330;48.158;11.816;2022-11-20T12:14:57;8.50;98.50
4635;DHT22;2330;48.158;11.816;2022-11-20T12:17:24;8.40;98.50
4635;DHT22;2330;48.158;11.816;2022-11-20T12:19:51;8.30;98.50
4635;DHT22;2330;48.158;11.816;2022-11-20T12:25:25;8.30;98.50
4635;DHT22;2330;48.158;11.816;2022-11-20T12:36:27;7.80;98.50
4635;DHT22;2330;48.158;11.816;2022-11-20T12:39:05;7.50;98.50
4635;DHT22;2330;48.158;11.816;2022-11-20T12:48:23;7.00;98.50
4635;DHT22;2330;48.158;11.816;2022-11-20T12:54:24;7.00;98.50
4635;DHT22;2330;48.158;11.816;2022-11-20T13:00:00;7.20;98.50
4635;DHT22;2330;48.158;11.816;2022-11-20T13:05:46;7.20;98.50
4635;DHT22;2330;48.158;11.816;2022-11-20T13:08:48;7.10;98.50
4635;DHT22;2330;48.158;11.816;2022-11-20T13:11:35;7.10;98.50
4635;DHT22;2330;48.158;11.816;2022-11-20T13:19:52;7.10;98.50
4635;DHT22;2330;48.158;11.816;2022-11-20T13:22:42;7.00;98.50
4635;DHT22;2330;48.158;11.816;2022-11-20T13:25:10;6.90;98.50
4635;DHT22;2330;48.158;11.816;2022-11-20T13:27:48;6.90;98.50
4635;DHT22;2330;48.158;11.816;2022-11-20T13:30:18;6.80;98.50
4635;DHT22;2330;48.158;11.816;2022-11-20T13:33:02;6.70;98.50
4635;DHT22;2330;48.158;11.816;2022-11-20T13:35:34;6.60;98.50
4635;DHT22;2330;48.158;11.816;2022-11-20T13:38:10;6.60;98.50
4635;DHT22;2330;48.158;11.816;2022-11-20T13:40:58;6.60;98.50
4635;DHT22;2330;48.158;11.816;2022-11-20T13:43:37;6.60;98.50
4635;DHT22;2330;48.158;11.816;2022-11-20T13:46:07;6.60;98.50
4635;DHT22;2330;48.158;11.816;2022-11-20T13:48:45;6.60;98.50
4635;DHT22;2330;48.158;11.816;2022-11-20T13:59:38;6.30;98.50
4635;DHT22;2330;48.158;11.816;2022-11-20T14:02:18;6.30;98.50
4635;DHT22;2330;48.158;11.816;2022-11-20T14:04:48;6.40;98.50
4635;DHT22;2330;48.158;11.816;2022-11-20T14:07:17;6.50;98.50
4635;DHT22;2330;48.158;11.816;2022-11-20T14:09:55;6.50;98.50
4635;DHT22;2330;48.158;11.816;2022-11-20T14:12:28;6.50;98.50
4635;DHT22;2330;48.158;11.816;2022-11-20T14:14:56;6.50;98.50
4635;DHT22;2330;48.158;11.816;2022-11-20T14:19:59;6.50;98.50
4635;DHT22;2330;48.158;11.816;2022-11-20T14:22:28;6.60;98.50
4635;DHT22;2330;48.158;11.816;2022-11-20T14:27:33;6.60;98.50
4635;DHT22;2330;48.158;11.816;2022-11-20T14:30:01;6.60;98.50
4635;DHT22;2330;48.158;11.816;2022-11-20T14:32:29;6.60;98.50
4635;DHT22;2330;48.158;11.816;2022-11-20T14:35:02;6.60;98.50
4635;DHT22;2330;48.158;11.816;2022-11-20T14:37:33;6.70;98.50
4635;DHT22;2330;48.158;11.816;2022-11-20T14:40:05;6.70;98.50
4635;DHT22;2330;48.158;11.816;2022-11-20T14:42:32;6.60;98.50
4635;DHT22;2330;48.158;11.816;2022-11-20T14:45:00;6.70;98.50
4635;DHT22;2330;48.158;11.816;2022-11-20T14:47:30;6.70;98.50
4635;DHT22;2330;48.158;11.816;2022-11-20T14:49:58;6.60;98.50
4635;DHT22;2330;48.158;11.816;2022-11-20T14:52:31;6.70;98.50
4635;DHT22;2330;48.158;11.816;2022-11-20T14:54:58;6.70;98.50
4635;DHT22;2330;48.158;11.816;2022-11-20T14:57:28;6.70;98.50
4635;DHT22;2330;48.158;11.816;2022-11-20T15:00:07;6.70;98.50
4635;DHT22;2330;48.158;11.816;2022-11-20T15:02:42;6.70;98.50
4635;DHT22;2330;48.158;11.816;2022-11-20T15:05:09;6.80;98.50
4635;DHT22;2330;48.158;11.816;2022-11-20T15:07:38;6.70;98.50
4635;DHT22;2330;48.158;11.816;2022-11-20T15:12:50;6.60;98.50
4635;DHT22;2330;48.158;11.816;2022-11-20T15:15:23;6.60;98.50
4635;DHT22;2330;48.158;11.816;2022-11-20T15:17:52;6.60;98.50
4635;DHT22;2330;48.158;11.816;2022-11-20T15:20:19;6.50;98.50
4635;DHT22;2330;48.158;11.816;2022-11-20T15:22:47;6.50;98.50
4635;DHT22;2330;48.158;11.816;2022-11-20T15:25:15;6.50;98.50
4635;DHT22;2330;48.158;11.816;2022-11-20T15:27:43;6.50;98.50
4635;DHT22;2330;48.158;11.816;2022-11-20T15:30:18;6.50;98.50
4635;DHT22;2330;48.158;11.816;2022-11-20T15:32:46;6.50;98.50
4635;DHT22;2330;48.158;11.816;2022-11-20T15:35:14;6.50;98.50
4635;DHT22;2330;48.158;11.816;2022-11-20T15:37:41;6.40;98.50
4635;DHT22;2330;48.158;11.816;2022-11-20T15:40:09;6.40;98.50
4635;DHT22;2330;48.158;11.816;2022-11-20T15:42:36;6.40;98.50
4635;DHT22;2330;48.158;11.816;2022-11-20T15:45:03;6.40;98.50
4635;DHT22;2330;48.158;11.816;2022-11-20T15:47:33;6.40;98.50
4635;DHT22;2330;48.158;11.816;2022-11-20T15:50:00;6.50;98.50
4635;DHT22;2330;48.158;11.816;2022-11-20T15:52:27;6.40;98.50
4635;DHT22;2330;48.158;11.816;2022-11-20T15:55:10;6.40;98.50
4635;DHT22;2330;48.158;11.816;2022-11-20T15:57:36;6.40;98.50
4635;DHT22;2330;48.158;11.816;2022-11-20T16:00:03;6.40;98.50
4635;DHT22;2330;48.158;11.816;2022-11-20T16:02:30;6.40;98.50
4635;DHT22;2330;48.158;11.816;2022-11-20T16:04:57;6.30;98.50
4635;DHT22;2330;48.158;11.816;2022-11-20T16:07:24;6.30;98.50
4635;DHT22;2330;48.158;11.816;2022-11-20T16:09:50;6.30;98.50
4635;DHT22;2330;48.158;11.816;2022-11-20T16:12:17;6.20;98.50
4635;DHT22;2330;48.158;11.816;2022-11-20T16:15:04;6.10;98.50
4635;DHT22;2330;48.158;11.816;2022-11-20T16:17:50;6.10;98.50
4635;DHT22;2330;48.158;11.816;2022-11-20T16:20:16;6.00;98.50
4635;DHT22;2330;48.158;11.816;2022-11-20T16:22:43;5.90;98.50
4635;DHT22;2330;48.158;11.816;2022-11-20T16:25:10;5.90;98.50
4635;DHT22;2330;48.158;11.816;2022-11-20T16:27:36;5.80;98.50
4635;DHT22;2330;48.158;11.816;2022-11-20T16:30:03;5.70;98.50
4635;DHT22;2330;48.158;11.816;2022-11-20T16:32:30;5.60;98.50
4635;DHT22;2330;48.158;11.816;2022-11-20T16:34:57;5.60;98.50
4635;DHT22;2330;48.158;11.816;2022-11-20T16:37:24;5.50;98.50
4635;DHT22;2330;48.158;11.816;2022-11-20T16:39:50;5.50;98.50
4635;DHT22;2330;48.158;11.816;2022-11-20T16:42:17;5.40;98.50
4635;DHT22;2330;48.158;11.816;2022-11-20T16:44:45;5.40;98.50
4635;DHT22;2330;48.158;11.816;2022-11-20T16:47:13;5.30;98.50
4635;DHT22;2330;48.158;11.816;2022-11-20T16:49:39;5.20;98.50
4635;DHT22;2330;48.158;11.816;2022-11-20T16:52:06;5.20;98.50
4635;DHT22;2330;48.158;11.816;2022-11-20T16:54:33;5.10;98.50
4635;DHT22;2330;48.158;11.816;2022-11-20T16:57:00;5.00;98.50
4635;DHT22;2330;48.158;11.816;2022-11-20T16:59:26;4.90;98.50
4635;DHT22;2330;48.158;11.816;2022-11-20T17:01:53;4.80;98.50
4635;DHT22;2330;48.158;11.816;2022-11-20T17:04:20;4.70;98.50
4635;DHT22;2330;48.158;11.816;2022-11-20T17:06:47;4.70;98.50
4635;DHT22;2330;48.158;11.816;2022-11-20T17:09:14;4.70;98.50
4635;DHT22;2330;48.158;11.816;2022-11-20T17:11:41;4.70;98.50
4635;DHT22;2330;48.158;11.816;2022-11-20T17:14:10;4.70;98.50
4635;DHT22;2330;48.158;11.816;2022-11-20T17:16:37;4.60;98.50
4635;DHT22;2330;48.158;11.816;2022-11-20T17:19:04;4.60;98.50
4635;DHT22;2330;48.158;11.816;2022-11-20T17:21:32;4.50;98.50
4635;DHT22;2330;48.158;11.816;2022-11-20T17:24:03;4.40;98.50
4635;DHT22;2330;48.158;11.816;2022-11-20T17:26:31;4.30;98.50
4635;DHT22;2330;48.158;11.816;2022-11-20T17:29:18;4.20;98.50
4635;DHT22;2330;48.158;11.816;2022-11-20T17:31:47;4.20;98.50
4635;DHT22;2330;48.158;11.816;2022-11-20T17:34:15;4.10;98.50
4635;DHT22;2330;48.158;11.816;2022-11-20T17:36:42;4.10;98.50
4635;DHT22;2330;48.158;11.816;2022-11-20T17:39:13;4.10;98.50
4635;DHT22;2330;48.158;11.816;2022-11-20T17:41:40;4.00;98.50
4635;DHT22;2330;48.158;11.816;2022-11-20T17:44:11;4.00;98.50
4635;DHT22;2330;48.158;11.816;2022-11-20T17:46:38;4.00;98.50
4635;DHT22;2330;48.158;11.816;2022-11-20T17:49:05;4.00;98.50
4635;DHT22;2330;48.158;11.816;2022-11-20T17:51:33;4.00;98.50